Time;durP1;ratioP1;P1;durP2;ratioP2;P2;SDS_P1;SDS_P2;PMS_P1;PMS_P2;Temp;Humidity;BMP_temperature;BMP_pressure;BME280_temperature;BME280_humidity;BME280_pressure;Samples;Min_cycle;Max_cycle;Signal;HPM_P1;HPM_P2
2021/01/31 00:00:29;;;;;;;20.48;6.57;;;;;;;;;;5093874;28;20233;-77
2021/01/31 00:02:55;;;;;;;18.23;7.72;;;;;;;;;;5094005;28;20188;-77
2021/01/31 00:05:23;;;;;;;20.13;7.85;;;;;;;;;;5096987;28;20191;-77
2021/01/31 00:07:49;;;;;;;14.55;7.07;;;;;;;;;;5098967;28;20267;-77
2021/01/31 00:10:16;;;;;;;18.02;6.15;;;;;;;;;;5097039;28;20179;-77
2021/01/31 00:12:42;;;;;;;11.23;5.85;;;;;;;;;;5096261;28;20184;-77
2021/01/31 00:15:09;;;;;;;11.90;5.57;;;;;;;;;;5094331;28;20195;-77
2021/01/31 00:17:35;;;;;;;17.38;6.82;;;;;;;;;;5101194;28;20442;-77
2021/01/31 00:20:01;;;;;;;17.90;6.67;;;;;;;;;;5099376;28;20191;-77
2021/01/31 00:22:27;;;;;;;17.33;5.88;;;;;;;;;;5100190;28;20424;-77
2021/01/31 00:24:56;;;;;;;16.23;5.70;;;;;;;;;;5096524;28;20195;-77
2021/01/31 00:27:24;;;;;;;11.15;4.90;;;;;;;;;;5100535;28;20183;-77
2021/01/31 00:29:51;;;;;;;10.48;4.80;;;;;;;;;;5095220;28;20184;-77
2021/01/31 00:32:21;;;;;;;17.67;6.10;;;;;;;;;;5100932;28;20183;-77
2021/01/31 00:34:47;;;;;;;17.05;6.05;;;;;;;;;;5110496;28;20688;-77
2021/01/31 00:37:14;;;;;;;11.40;5.70;;;;;;;;;;5098591;28;20235;-77
2021/01/31 00:39:40;;;;;;;11.45;5.45;;;;;;;;;;5096644;28;20242;-77
2021/01/31 00:42:06;;;;;;;10.00;5.30;;;;;;;;;;5093617;28;20200;-77
2021/01/31 00:44:32;;;;;;;11.60;4.40;;;;;;;;;;5098957;28;20191;-76
2021/01/31 00:46:58;;;;;;;12.33;5.30;;;;;;;;;;5094662;28;20430;-76
2021/01/31 00:49:24;;;;;;;15.27;6.25;;;;;;;;;;5099396;28;20442;-76
2021/01/31 00:51:50;;;;;;;15.90;5.40;;;;;;;;;;5095866;28;20210;-76
2021/01/31 00:54:16;;;;;;;15.83;6.27;;;;;;;;;;5098049;28;20450;-76
2021/01/31 00:56:42;;;;;;;14.38;6.22;;;;;;;;;;5094814;28;20450;-76
2021/01/31 00:59:08;;;;;;;13.37;5.67;;;;;;;;;;5098207;28;20184;-76
2021/01/31 01:01:34;;;;;;;20.77;6.73;;;;;;;;;;5099632;28;20503;-77
2021/01/31 01:04:00;;;;;;;11.47;5.10;;;;;;;;;;5101940;28;20418;-76
2021/01/31 01:06:26;;;;;;;17.65;6.75;;;;;;;;;;5093187;28;20429;-75
2021/01/31 01:08:52;;;;;;;14.30;5.40;;;;;;;;;;5094166;28;20249;-77
2021/01/31 01:11:18;;;;;;;21.23;7.00;;;;;;;;;;5098459;28;20191;-76
2021/01/31 01:13:44;;;;;;;13.30;4.73;;;;;;;;;;5093219;28;20513;-76
2021/01/31 01:16:10;;;;;;;17.80;5.97;;;;;;;;;;5097106;28;20440;-76
2021/01/31 01:18:38;;;;;;;14.02;5.47;;;;;;;;;;5098891;28;20219;-76
2021/01/31 01:21:04;;;;;;;15.80;5.47;;;;;;;;;;5093539;28;20226;-76
2021/01/31 01:23:30;;;;;;;12.20;4.80;;;;;;;;;;5100213;28;20174;-76
2021/01/31 01:25:56;;;;;;;7.18;3.47;;;;;;;;;;5099687;28;20522;-76
2021/01/31 01:28:22;;;;;;;9.10;3.37;;;;;;;;;;5101690;28;20198;-76
2021/01/31 01:30:49;;;;;;;7.33;4.17;;;;;;;;;;5100621;28;20902;-77
2021/01/31 01:33:15;;;;;;;10.23;4.38;;;;;;;;;;5094928;28;20473;-77
2021/01/31 01:35:41;;;;;;;9.43;4.30;;;;;;;;;;5100598;28;20370;-78
2021/01/31 01:38:07;;;;;;;4.95;3.50;;;;;;;;;;5100312;28;20457;-79
2021/01/31 01:40:37;;;;;;;12.73;5.45;;;;;;;;;;5103857;28;20226;-81
2021/01/31 01:43:04;;;;;;;9.38;4.70;;;;;;;;;;5099546;28;20187;-80
2021/01/31 01:45:30;;;;;;;5.50;5.00;;;;;;;;;;5096440;28;20283;-81
2021/01/31 01:48:00;;;;;;;12.57;5.18;;;;;;;;;;5097945;28;20591;-79
2021/01/31 01:50:29;;;;;;;5.65;4.03;;;;;;;;;;5099451;28;20218;-80
2021/01/31 01:52:56;;;;;;;5.07;4.57;;;;;;;;;;5098772;28;20216;-80
2021/01/31 01:55:23;;;;;;;5.03;3.65;;;;;;;;;;5098822;28;20196;-80
2021/01/31 01:57:56;;;;;;;9.18;3.67;;;;;;;;;;5099440;28;20176;-80
2021/01/31 02:00:23;;;;;;;4.03;3.70;;;;;;;;;;5099324;28;20218;-79
2021/01/31 02:02:52;;;;;;;4.55;3.60;;;;;;;;;;5104026;28;20286;-79
2021/01/31 02:05:18;;;;;;;4.75;3.95;;;;;;;;;;5102455;28;20206;-79
2021/01/31 02:07:45;;;;;;;4.47;3.60;;;;;;;;;;5095688;28;20624;-79
2021/01/31 02:10:12;;;;;;;5.50;3.75;;;;;;;;;;5114298;28;20278;-79
2021/01/31 02:12:38;;;;;;;5.47;3.88;;;;;;;;;;5097855;28;20278;-79
2021/01/31 02:15:06;;;;;;;6.38;4.22;;;;;;;;;;5104214;28;20176;-79
2021/01/31 02:17:52;;;;;;;10.30;4.95;;;;;;;;;;5099500;28;20200;-78
2021/01/31 02:20:37;;;;;;;7.57;5.55;;;;;;;;;;5101518;28;20232;-78
2021/01/31 02:23:23;;;;;;;8.05;5.80;;;;;;;;;;5098871;28;20179;-78
2021/01/31 02:25:49;;;;;;;8.75;6.75;;;;;;;;;;5097946;28;20180;-78
2021/01/31 02:28:27;;;;;;;7.67;6.63;;;;;;;;;;5099209;28;20527;-79
2021/01/31 02:31:08;;;;;;;11.35;7.40;;;;;;;;;;5117241;28;20425;-78
2021/01/31 02:33:53;;;;;;;8.18;6.82;;;;;;;;;;5096054;28;20188;-79
2021/01/31 02:36:31;;;;;;;11.05;8.20;;;;;;;;;;5099172;28;20213;-80
2021/01/31 02:38:57;;;;;;;15.02;9.18;;;;;;;;;;5095047;28;20192;-81
2021/01/31 02:41:37;;;;;;;10.50;9.37;;;;;;;;;;5100830;28;20249;-80
2021/01/31 02:44:08;;;;;;;12.20;10.05;;;;;;;;;;5098510;28;20429;-79
2021/01/31 02:46:34;;;;;;;15.00;9.60;;;;;;;;;;5110475;28;20191;-79
2021/01/31 02:49:13;;;;;;;15.43;11.00;;;;;;;;;;5098800;28;20171;-80
2021/01/31 02:52:12;;;;;;;16.00;12.00;;;;;;;;;;5103922;28;20429;-80
2021/01/31 02:54:47;;;;;;;13.77;11.30;;;;;;;;;;5039021;28;20303;-79
2021/01/31 02:57:16;;;;;;;17.20;12.02;;;;;;;;;;5023880;28;20193;-79
2021/01/31 02:59:47;;;;;;;18.48;12.40;;;;;;;;;;5022088;28;20217;-79
2021/01/31 03:02:15;;;;;;;27.20;14.20;;;;;;;;;;5034073;28;20206;-79
2021/01/31 03:04:51;;;;;;;24.95;15.48;;;;;;;;;;5022792;28;20757;-80
2021/01/31 03:07:21;;;;;;;23.17;15.50;;;;;;;;;;5021552;28;20178;-80
2021/01/31 03:09:52;;;;;;;27.13;14.85;;;;;;;;;;5041983;28;20189;-81
2021/01/31 03:12:21;;;;;;;22.95;15.10;;;;;;;;;;5039617;28;20273;-80
2021/01/31 03:14:51;;;;;;;24.10;15.23;;;;;;;;;;5038527;28;20228;-80
2021/01/31 03:17:19;;;;;;;29.25;15.95;;;;;;;;;;5038502;28;20262;-79
2021/01/31 03:19:52;;;;;;;30.17;15.45;;;;;;;;;;5024778;28;20190;-79
2021/01/31 03:22:22;;;;;;;26.48;16.63;;;;;;;;;;5024444;28;20243;-79
2021/01/31 03:24:52;;;;;;;25.80;16.00;;;;;;;;;;5040900;28;20264;-79
2021/01/31 03:27:21;;;;;;;26.55;16.38;;;;;;;;;;5022117;28;20661;-80
2021/01/31 03:29:47;;;;;;;30.88;19.23;;;;;;;;;;5047584;28;20193;-80
2021/01/31 03:32:17;;;;;;;37.05;19.02;;;;;;;;;;5098260;28;20184;-80
2021/01/31 03:34:54;;;;;;;37.40;19.40;;;;;;;;;;5097699;28;20192;-79
2021/01/31 03:37:23;;;;;;;33.28;18.45;;;;;;;;;;5100745;28;20181;-78
2021/01/31 03:39:50;;;;;;;34.30;19.05;;;;;;;;;;5099053;28;20215;-80
2021/01/31 03:42:16;;;;;;;30.52;18.45;;;;;;;;;;5094683;28;20204;-79
2021/01/31 03:44:43;;;;;;;27.40;18.40;;;;;;;;;;5102146;28;20270;-80
2021/01/31 03:47:34;;;;;;;29.00;16.90;;;;;;;;;;5099529;28;20181;-80
2021/01/31 03:50:01;;;;;;;27.80;17.08;;;;;;;;;;5095819;28;20177;-81
2021/01/31 03:52:28;;;;;;;26.75;16.83;;;;;;;;;;5095791;28;20633;-81
2021/01/31 03:54:55;;;;;;;26.20;16.65;;;;;;;;;;5097493;28;20258;-79
2021/01/31 03:57:30;;;;;;;24.75;15.05;;;;;;;;;;5101860;28;20183;-80
2021/01/31 03:59:58;;;;;;;27.33;14.93;;;;;;;;;;5101947;28;20191;-78
2021/01/31 04:02:26;;;;;;;23.50;14.70;;;;;;;;;;5100780;28;20176;-81
2021/01/31 04:04:52;;;;;;;24.00;15.20;;;;;;;;;;5100122;28;20179;-80
2021/01/31 04:07:25;;;;;;;20.83;13.88;;;;;;;;;;5102070;28;20192;-81
2021/01/31 04:09:51;;;;;;;22.50;14.02;;;;;;;;;;5096856;28;20171;-80
2021/01/31 04:12:21;;;;;;;27.42;13.88;;;;;;;;;;5097149;28;20199;-79
2021/01/31 04:14:53;;;;;;;20.13;13.55;;;;;;;;;;5101296;28;20179;-79
2021/01/31 04:17:19;;;;;;;26.63;16.52;;;;;;;;;;5101378;28;20180;-78
2021/01/31 04:19:46;;;;;;;26.40;16.77;;;;;;;;;;5094811;28;20194;-78
2021/01/31 04:22:12;;;;;;;24.13;16.05;;;;;;;;;;5098855;28;20198;-82
2021/01/31 04:24:38;;;;;;;29.17;17.57;;;;;;;;;;5096007;28;20548;-80
2021/01/31 04:27:04;;;;;;;24.90;16.60;;;;;;;;;;5095960;28;20435;-84
2021/01/31 04:29:31;;;;;;;23.13;15.48;;;;;;;;;;5099883;28;20435;-79
2021/01/31 04:31:56;;;;;;;24.98;16.33;;;;;;;;;;5091885;28;20184;-80
2021/01/31 04:34:22;;;;;;;23.73;13.40;;;;;;;;;;5098659;28;20190;-80
2021/01/31 04:36:48;;;;;;;23.00;13.73;;;;;;;;;;5102475;28;20421;-80
2021/01/31 04:39:14;;;;;;;18.80;12.98;;;;;;;;;;5099004;28;20481;-80
2021/01/31 04:41:42;;;;;;;20.27;14.60;;;;;;;;;;5100982;28;20612;-79
2021/01/31 04:44:10;;;;;;;22.17;13.88;;;;;;;;;;5097651;28;20199;-79
2021/01/31 04:46:45;;;;;;;20.63;14.40;;;;;;;;;;5100039;28;20208;-79
2021/01/31 04:49:39;;;;;;;23.40;14.57;;;;;;;;;;5097986;28;20577;-79
2021/01/31 04:52:14;;;;;;;22.45;13.50;;;;;;;;;;5098099;28;20633;-79
2021/01/31 04:54:40;;;;;;;22.98;15.02;;;;;;;;;;5109796;28;20188;-78
2021/01/31 04:57:33;;;;;;;19.45;13.50;;;;;;;;;;5090685;28;20180;-78
2021/01/31 05:00:01;;;;;;;20.60;12.73;;;;;;;;;;5108544;28;20685;-78
2021/01/31 05:02:33;;;;;;;23.02;14.27;;;;;;;;;;5103752;28;20180;-78
2021/01/31 05:04:59;;;;;;;22.98;12.85;;;;;;;;;;5103261;28;20180;-78
2021/01/31 05:07:32;;;;;;;23.33;14.90;;;;;;;;;;5101506;28;20175;-78
2021/01/31 05:09:58;;;;;;;18.00;13.10;;;;;;;;;;5115991;28;20183;-78
2021/01/31 05:12:28;;;;;;;20.05;13.18;;;;;;;;;;5104776;28;20183;-79
2021/01/31 05:15:06;;;;;;;19.10;12.57;;;;;;;;;;5099915;28;20184;-78
2021/01/31 05:17:32;;;;;;;20.98;14.55;;;;;;;;;;5092208;28;20188;-79
2021/01/31 05:20:00;;;;;;;23.58;14.35;;;;;;;;;;5103438;28;20194;-79
2021/01/31 05:22:28;;;;;;;20.60;11.88;;;;;;;;;;5098878;28;20567;-79
2021/01/31 05:24:54;;;;;;;26.25;13.82;;;;;;;;;;5100162;28;20243;-78
2021/01/31 05:27:21;;;;;;;20.38;12.52;;;;;;;;;;5104242;28;20552;-78
2021/01/31 05:29:47;;;;;;;22.55;12.65;;;;;;;;;;5104919;28;20180;-78
2021/01/31 05:32:15;;;;;;;18.37;12.90;;;;;;;;;;5105951;28;20190;-79
2021/01/31 05:34:42;;;;;;;18.42;12.68;;;;;;;;;;5103798;28;20441;-77
2021/01/31 05:37:10;;;;;;;21.15;13.70;;;;;;;;;;5104297;28;20195;-82
2021/01/31 05:39:44;;;;;;;18.00;12.75;;;;;;;;;;5103868;28;20228;-79
2021/01/31 05:42:15;;;;;;;20.88;13.43;;;;;;;;;;5104000;28;20203;-79
2021/01/31 05:44:42;;;;;;;19.60;13.65;;;;;;;;;;5099423;28;20191;-79
2021/01/31 05:47:22;;;;;;;19.55;12.70;;;;;;;;;;5102520;28;20226;-79
2021/01/31 05:49:50;;;;;;;20.20;14.48;;;;;;;;;;5113857;27;20257;-79
2021/01/31 05:52:22;;;;;;;17.38;12.75;;;;;;;;;;5100178;28;20175;-78
2021/01/31 05:54:49;;;;;;;16.23;11.98;;;;;;;;;;5104479;28;20180;-79
2021/01/31 05:57:29;;;;;;;17.85;12.70;;;;;;;;;;5104065;28;20187;-78
2021/01/31 05:59:55;;;;;;;21.75;13.07;;;;;;;;;;5100545;28;20191;-78
2021/01/31 06:02:21;;;;;;;23.88;12.93;;;;;;;;;;5101998;28;20229;-78
2021/01/31 06:04:47;;;;;;;21.02;13.23;;;;;;;;;;5096839;28;20179;-78
2021/01/31 06:07:15;;;;;;;16.30;11.53;;;;;;;;;;5101134;28;20179;-79
2021/01/31 06:09:42;;;;;;;18.55;11.32;;;;;;;;;;5096400;28;20422;-78
2021/01/31 06:12:10;;;;;;;21.48;12.90;;;;;;;;;;5103519;28;20219;-78
2021/01/31 06:14:37;;;;;;;20.90;14.18;;;;;;;;;;5103256;28;20267;-78
2021/01/31 06:17:23;;;;;;;17.80;13.02;;;;;;;;;;5103282;28;20180;-78
2021/01/31 06:19:50;;;;;;;14.60;11.07;;;;;;;;;;5098109;28;20191;-78
2021/01/31 06:22:16;;;;;;;22.30;13.13;;;;;;;;;;5098800;28;20654;-78
2021/01/31 06:24:47;;;;;;;20.35;12.32;;;;;;;;;;5115707;28;20184;-79
2021/01/31 06:27:14;;;;;;;17.90;13.00;;;;;;;;;;5098933;28;20172;-79
2021/01/31 06:29:43;;;;;;;18.70;12.40;;;;;;;;;;5099595;28;20184;-78
2021/01/31 06:32:17;;;;;;;16.52;12.00;;;;;;;;;;5099038;28;20192;-79
2021/01/31 06:34:57;;;;;;;21.52;12.65;;;;;;;;;;5095397;28;20192;-78
2021/01/31 06:37:23;;;;;;;19.05;11.35;;;;;;;;;;5103436;28;20625;-78
2021/01/31 06:40:08;;;;;;;20.63;11.80;;;;;;;;;;5103375;28;20208;-78
2021/01/31 06:42:53;;;;;;;15.82;11.63;;;;;;;;;;5095955;28;20482;-78
2021/01/31 06:45:46;;;;;;;19.20;12.65;;;;;;;;;;5091740;28;20196;-78
2021/01/31 06:48:25;;;;;;;24.05;13.32;;;;;;;;;;5092295;28;20337;-78
2021/01/31 06:51:05;;;;;;;18.25;12.13;;;;;;;;;;5102998;28;20187;-78
2021/01/31 06:53:31;;;;;;;19.55;12.52;;;;;;;;;;5090766;28;20182;-78
2021/01/31 06:56:13;;;;;;;16.93;11.90;;;;;;;;;;5097771;28;20271;-79
2021/01/31 06:58:45;;;;;;;19.73;13.18;;;;;;;;;;5099672;28;20443;-78
2021/01/31 07:01:50;;;;;;;22.33;13.48;;;;;;;;;;5100743;28;20203;-78
2021/01/31 07:04:36;;;;;;;21.88;12.85;;;;;;;;;;5025461;28;20205;-77
2021/01/31 07:07:20;;;;;;;20.75;12.60;;;;;;;;;;5040543;28;20184;-78
2021/01/31 07:10:01;;;;;;;21.73;13.57;;;;;;;;;;5014591;28;20286;-79
2021/01/31 07:12:32;;;;;;;20.15;11.80;;;;;;;;;;5036289;28;20181;-79
2021/01/31 07:15:15;;;;;;;20.23;13.32;;;;;;;;;;5013428;28;20305;-79
2021/01/31 07:17:41;;;;;;;21.27;13.18;;;;;;;;;;5024947;28;20193;-78
2021/01/31 07:20:11;;;;;;;19.73;12.37;;;;;;;;;;5040735;28;20173;-79
2021/01/31 07:22:42;;;;;;;18.17;11.82;;;;;;;;;;5041820;28;20425;-78
2021/01/31 07:25:08;;;;;;;19.58;12.20;;;;;;;;;;5025291;28;20241;-78
2021/01/31 07:27:46;;;;;;;19.02;12.60;;;;;;;;;;5041654;28;20260;-78
2021/01/31 07:30:16;;;;;;;19.15;12.90;;;;;;;;;;5020473;28;20198;-78
2021/01/31 07:32:48;;;;;;;19.70;12.80;;;;;;;;;;5041773;28;20185;-78
2021/01/31 07:35:17;;;;;;;21.25;11.60;;;;;;;;;;5069768;28;20194;-79
2021/01/31 07:37:46;;;;;;;17.80;12.30;;;;;;;;;;5095349;28;20203;-78
2021/01/31 07:40:31;;;;;;;19.10;11.25;;;;;;;;;;5101276;28;20251;-79
2021/01/31 07:42:58;;;;;;;15.93;11.02;;;;;;;;;;5102137;28;20176;-79
2021/01/31 07:45:26;;;;;;;20.63;12.18;;;;;;;;;;5094679;28;20199;-79
2021/01/31 07:48:11;;;;;;;21.27;12.88;;;;;;;;;;5095834;28;20181;-79
2021/01/31 07:50:39;;;;;;;20.55;12.02;;;;;;;;;;5095494;28;20202;-79
2021/01/31 07:53:06;;;;;;;17.98;11.70;;;;;;;;;;5100217;28;20188;-79
2021/01/31 07:55:35;;;;;;;17.52;12.63;;;;;;;;;;5096741;28;20180;-79
2021/01/31 07:58:22;;;;;;;16.98;12.32;;;;;;;;;;5095655;28;20251;-79
2021/01/31 08:00:49;;;;;;;21.60;12.60;;;;;;;;;;5090020;28;20207;-79
2021/01/31 08:03:29;;;;;;;19.17;12.15;;;;;;;;;;5095660;28;20176;-79
2021/01/31 08:06:01;;;;;;;16.02;11.95;;;;;;;;;;5099141;28;20187;-80
2021/01/31 08:08:38;;;;;;;26.20;14.43;;;;;;;;;;5102198;28;20200;-79
2021/01/31 08:11:05;;;;;;;20.00;13.50;;;;;;;;;;5098408;28;20219;-79
2021/01/31 08:13:36;;;;;;;19.60;12.20;;;;;;;;;;5095887;28;20187;-79
2021/01/31 08:16:22;;;;;;;20.08;13.05;;;;;;;;;;5099965;28;20209;-79
2021/01/31 08:19:06;;;;;;;20.02;12.52;;;;;;;;;;5096435;28;20550;-80
2021/01/31 08:21:52;;;;;;;18.88;12.20;;;;;;;;;;5100993;28;20208;-79
2021/01/31 08:24:37;;;;;;;19.70;13.35;;;;;;;;;;5094598;28;20179;-80
2021/01/31 08:27:03;;;;;;;25.58;12.13;;;;;;;;;;5099863;28;20254;-80
2021/01/31 08:29:30;;;;;;;22.08;12.55;;;;;;;;;;5098366;28;20544;-80
2021/01/31 08:32:00;;;;;;;19.13;13.38;;;;;;;;;;5100874;28;20211;-79
2021/01/31 08:34:26;;;;;;;25.23;13.25;;;;;;;;;;5095418;28;20183;-79
2021/01/31 08:36:52;;;;;;;20.95;12.48;;;;;;;;;;5092951;28;20192;-80
2021/01/31 08:39:31;;;;;;;25.93;14.20;;;;;;;;;;5106600;28;20210;-79
2021/01/31 08:42:10;;;;;;;19.65;12.75;;;;;;;;;;5099710;28;20488;-80
2021/01/31 08:44:45;;;;;;;21.95;13.57;;;;;;;;;;5097932;28;20574;-80
2021/01/31 08:47:12;;;;;;;16.05;12.00;;;;;;;;;;5098088;28;20199;-79
2021/01/31 08:49:38;;;;;;;22.40;12.98;;;;;;;;;;5095405;28;20177;-80
2021/01/31 08:52:23;;;;;;;21.63;13.20;;;;;;;;;;5111943;28;20222;-81
2021/01/31 08:54:59;;;;;;;18.50;11.80;;;;;;;;;;5091898;28;20175;-80
2021/01/31 08:57:26;;;;;;;20.45;12.20;;;;;;;;;;5100439;28;20278;-80
2021/01/31 08:59:52;;;;;;;18.15;12.35;;;;;;;;;;5100837;28;20190;-80
2021/01/31 09:02:27;;;;;;;17.17;11.77;;;;;;;;;;5101605;28;20302;-80
2021/01/31 09:05:10;;;;;;;19.70;12.27;;;;;;;;;;5111788;28;20191;-81
2021/01/31 09:07:38;;;;;;;19.77;13.65;;;;;;;;;;5100402;28;20199;-80
2021/01/31 09:10:06;;;;;;;21.15;13.43;;;;;;;;;;5100173;28;20186;-80
2021/01/31 09:12:32;;;;;;;22.60;14.05;;;;;;;;;;5092776;28;20179;-81
2021/01/31 09:15:21;;;;;;;21.98;14.23;;;;;;;;;;5095550;28;20237;-80
2021/01/31 09:17:47;;;;;;;21.33;13.27;;;;;;;;;;5090391;28;20177;-81
2021/01/31 09:20:19;;;;;;;23.48;14.23;;;;;;;;;;5098241;28;20218;-80
2021/01/31 09:22:50;;;;;;;24.55;14.68;;;;;;;;;;5099274;28;20190;-80
2021/01/31 09:25:18;;;;;;;20.85;14.30;;;;;;;;;;5096803;28;20187;-80
2021/01/31 09:27:58;;;;;;;21.95;14.40;;;;;;;;;;5094062;28;20183;-79
2021/01/31 09:30:25;;;;;;;20.23;13.88;;;;;;;;;;5090389;28;20179;-80
2021/01/31 09:32:53;;;;;;;24.90;13.65;;;;;;;;;;5094390;28;20181;-80
2021/01/31 09:35:23;;;;;;;24.48;14.85;;;;;;;;;;5094620;28;20196;-80
2021/01/31 09:37:49;;;;;;;23.75;15.07;;;;;;;;;;5088076;28;20602;-79
2021/01/31 09:40:16;;;;;;;23.48;15.48;;;;;;;;;;5097774;28;20208;-79
2021/01/31 09:42:43;;;;;;;22.85;14.52;;;;;;;;;;5095751;28;20660;-80
2021/01/31 09:45:28;;;;;;;23.52;15.38;;;;;;;;;;5097268;28;20259;-80
2021/01/31 09:47:54;;;;;;;21.60;14.52;;;;;;;;;;5099449;28;20184;-80
2021/01/31 09:50:20;;;;;;;24.95;14.55;;;;;;;;;;5103689;28;20645;-80
2021/01/31 09:52:49;;;;;;;21.35;15.35;;;;;;;;;;5098687;28;20195;-79
2021/01/31 09:55:34;;;;;;;22.52;13.32;;;;;;;;;;5119045;28;20235;-79
2021/01/31 09:58:01;;;;;;;21.30;12.98;;;;;;;;;;5099479;28;20664;-79
2021/01/31 10:00:28;;;;;;;17.80;14.30;;;;;;;;;;5098788;28;20200;-80
2021/01/31 10:03:01;;;;;;;21.98;13.55;;;;;;;;;;5099237;28;20184;-79
2021/01/31 10:05:28;;;;;;;20.35;11.95;;;;;;;;;;5091265;28;20171;-80
2021/01/31 10:08:01;;;;;;;20.52;13.13;;;;;;;;;;5099261;28;20183;-79
2021/01/31 10:10:32;;;;;;;19.48;12.65;;;;;;;;;;5102768;28;20229;-80
2021/01/31 10:13:37;;;;;;;17.88;12.38;;;;;;;;;;5098883;28;20195;-80
2021/01/31 10:16:14;;;;;;;18.85;13.02;;;;;;;;;;5058118;28;20192;-79
2021/01/31 10:18:41;;;;;;;19.50;11.13;;;;;;;;;;5057612;28;20193;-80
2021/01/31 10:21:42;;;;;;;15.35;10.65;;;;;;;;;;5045811;28;20216;-79
2021/01/31 10:24:19;;;;;;;17.85;12.63;;;;;;;;;;5000875;28;20247;-80
2021/01/31 10:26:45;;;;;;;16.20;12.15;;;;;;;;;;5018343;28;20191;-80
2021/01/31 10:29:21;;;;;;;18.98;12.15;;;;;;;;;;5017414;28;20186;-79
2021/01/31 10:31:47;;;;;;;16.48;12.77;;;;;;;;;;5006160;28;20194;-79
2021/01/31 10:34:33;;;;;;;16.38;11.25;;;;;;;;;;5019536;28;20209;-80
2021/01/31 10:37:19;;;;;;;14.90;11.93;;;;;;;;;;5021304;28;20205;-80
2021/01/31 10:39:49;;;;;;;16.92;11.27;;;;;;;;;;5018323;28;20253;-80
2021/01/31 10:42:15;;;;;;;15.60;10.07;;;;;;;;;;5017683;28;20261;-80
2021/01/31 10:44:41;;;;;;;16.52;11.38;;;;;;;;;;5019608;28;20202;-79
2021/01/31 10:47:07;;;;;;;17.95;12.10;;;;;;;;;;5031518;28;20198;-80
2021/01/31 10:49:33;;;;;;;17.35;13.48;;;;;;;;;;5025225;28;20182;-79
2021/01/31 10:51:59;;;;;;;15.52;10.88;;;;;;;;;;5026554;28;20186;-79
2021/01/31 10:54:25;;;;;;;15.73;11.73;;;;;;;;;;5042223;28;20197;-79
2021/01/31 10:56:51;;;;;;;24.48;16.63;;;;;;;;;;5024570;28;20981;-80
2021/01/31 10:59:17;;;;;;;27.17;20.65;;;;;;;;;;5099461;28;20223;-80
2021/01/31 11:01:44;;;;;;;18.08;14.95;;;;;;;;;;5101000;28;20237;-80
2021/01/31 11:04:10;;;;;;;17.90;13.52;;;;;;;;;;5100124;28;20211;-80
2021/01/31 11:06:36;;;;;;;19.10;13.05;;;;;;;;;;5095848;28;20533;-80
2021/01/31 11:09:02;;;;;;;16.75;12.90;;;;;;;;;;5102955;28;20184;-80
2021/01/31 11:11:28;;;;;;;16.10;11.60;;;;;;;;;;5100619;28;20211;-80
2021/01/31 11:13:54;;;;;;;15.75;12.45;;;;;;;;;;5101156;28;20191;-80
2021/01/31 11:16:20;;;;;;;18.47;13.33;;;;;;;;;;5096976;28;20203;-80
2021/01/31 11:18:47;;;;;;;20.90;14.05;;;;;;;;;;5096437;28;20426;-80
2021/01/31 11:21:16;;;;;;;17.85;13.82;;;;;;;;;;5095093;28;20204;-80
2021/01/31 11:23:42;;;;;;;19.50;13.82;;;;;;;;;;5098599;28;20249;-81
2021/01/31 11:26:08;;;;;;;20.05;13.07;;;;;;;;;;5100824;28;20188;-80
2021/01/31 11:28:34;;;;;;;18.23;11.97;;;;;;;;;;5097899;28;20190;-80
2021/01/31 11:31:00;;;;;;;19.55;14.32;;;;;;;;;;5095128;28;20429;-80
2021/01/31 11:33:26;;;;;;;19.23;14.50;;;;;;;;;;5095477;28;20862;-80
2021/01/31 11:35:52;;;;;;;21.02;15.82;;;;;;;;;;5093311;28;20188;-80
2021/01/31 11:38:18;;;;;;;20.50;14.75;;;;;;;;;;5101063;28;20221;-80
2021/01/31 11:40:44;;;;;;;23.20;14.85;;;;;;;;;;5098149;28;20231;-80
2021/01/31 11:43:09;;;;;;;17.85;14.57;;;;;;;;;;5087698;28;20242;-80
2021/01/31 11:45:35;;;;;;;21.45;16.60;;;;;;;;;;5099933;28;20731;-79
2021/01/31 11:48:01;;;;;;;22.40;15.88;;;;;;;;;;5096055;28;20204;-79
2021/01/31 11:50:27;;;;;;;22.45;15.50;;;;;;;;;;5100145;28;20183;-79
2021/01/31 11:52:54;;;;;;;21.98;16.50;;;;;;;;;;5097738;28;20262;-79
2021/01/31 11:55:20;;;;;;;24.92;17.48;;;;;;;;;;5100016;28;20175;-79
2021/01/31 11:57:46;;;;;;;35.83;22.63;;;;;;;;;;5093439;28;20605;-79
2021/01/31 12:00:13;;;;;;;26.08;16.80;;;;;;;;;;5095182;28;20176;-80
2021/01/31 12:02:39;;;;;;;21.20;15.18;;;;;;;;;;5097720;28;20206;-79
2021/01/31 12:05:09;;;;;;;21.58;16.35;;;;;;;;;;5098630;28;20184;-79
2021/01/31 12:07:35;;;;;;;24.17;16.63;;;;;;;;;;5092754;28;20181;-79
2021/01/31 12:10:01;;;;;;;23.92;16.73;;;;;;;;;;5097041;28;20252;-79
2021/01/31 12:12:27;;;;;;;24.13;15.77;;;;;;;;;;5094554;28;20194;-79
2021/01/31 12:14:52;;;;;;;25.05;17.38;;;;;;;;;;5091161;28;20435;-79
2021/01/31 12:17:18;;;;;;;28.73;17.00;;;;;;;;;;5099772;28;20615;-79
2021/01/31 12:19:44;;;;;;;23.20;16.13;;;;;;;;;;5096288;28;20441;-80
2021/01/31 12:22:10;;;;;;;23.45;15.45;;;;;;;;;;5096625;28;20238;-80
2021/01/31 12:24:36;;;;;;;24.40;17.20;;;;;;;;;;5095076;28;20194;-80
2021/01/31 12:27:02;;;;;;;24.10;17.70;;;;;;;;;;5096968;28;20451;-80
2021/01/31 12:29:28;;;;;;;21.35;16.73;;;;;;;;;;5097105;28;20441;-80
2021/01/31 12:31:54;;;;;;;19.80;14.90;;;;;;;;;;5096691;28;20183;-80
2021/01/31 12:34:20;;;;;;;22.30;16.88;;;;;;;;;;5100022;28;20433;-80
2021/01/31 12:36:46;;;;;;;23.10;16.93;;;;;;;;;;5097091;28;20175;-79
2021/01/31 12:39:12;;;;;;;25.05;18.45;;;;;;;;;;5098356;28;20571;-80
2021/01/31 12:41:38;;;;;;;22.65;16.77;;;;;;;;;;5098572;28;20319;-80
2021/01/31 12:44:04;;;;;;;22.65;18.10;;;;;;;;;;5099779;28;20563;-80
2021/01/31 12:46:30;;;;;;;25.30;17.48;;;;;;;;;;5100774;28;20210;-80
2021/01/31 12:48:56;;;;;;;23.77;18.52;;;;;;;;;;5099677;28;20227;-80
2021/01/31 12:51:25;;;;;;;20.93;16.47;;;;;;;;;;5101670;28;20179;-80
2021/01/31 12:53:51;;;;;;;25.00;16.70;;;;;;;;;;5095705;28;20434;-80
2021/01/31 12:56:17;;;;;;;22.50;17.13;;;;;;;;;;5097689;28;20564;-80
2021/01/31 12:58:43;;;;;;;27.27;19.87;;;;;;;;;;5092882;28;21203;-80
2021/01/31 13:01:09;;;;;;;25.47;18.27;;;;;;;;;;5094492;28;20449;-81
2021/01/31 13:03:35;;;;;;;23.45;18.02;;;;;;;;;;5101241;28;20434;-80
2021/01/31 13:06:01;;;;;;;27.75;18.55;;;;;;;;;;5095036;28;20623;-80
2021/01/31 13:08:27;;;;;;;25.50;18.52;;;;;;;;;;5094224;28;20244;-81
2021/01/31 13:10:53;;;;;;;23.95;17.77;;;;;;;;;;5092911;28;20176;-80
2021/01/31 13:13:19;;;;;;;26.02;17.75;;;;;;;;;;5098146;28;20184;-80
2021/01/31 13:15:45;;;;;;;30.20;19.52;;;;;;;;;;5093809;28;20175;-80
2021/01/31 13:18:11;;;;;;;24.85;17.92;;;;;;;;;;5102345;28;20191;-79
2021/01/31 13:20:37;;;;;;;27.00;19.88;;;;;;;;;;5103846;28;20209;-80
2021/01/31 13:23:03;;;;;;;25.45;17.33;;;;;;;;;;5102620;28;20191;-80
2021/01/31 13:25:29;;;;;;;27.45;19.15;;;;;;;;;;5103282;28;20524;-81
2021/01/31 13:27:57;;;;;;;23.70;18.77;;;;;;;;;;5104777;28;20392;-81
2021/01/31 13:30:23;;;;;;;24.60;17.55;;;;;;;;;;5104141;28;20180;-80
2021/01/31 13:32:50;;;;;;;32.50;18.63;;;;;;;;;;5103895;28;20234;-80
2021/01/31 13:35:16;;;;;;;27.13;18.05;;;;;;;;;;5103918;28;20184;-80
2021/01/31 13:37:42;;;;;;;27.67;19.15;;;;;;;;;;5103114;28;20176;-80
2021/01/31 13:40:08;;;;;;;26.00;18.20;;;;;;;;;;5102549;28;20230;-82
2021/01/31 13:42:34;;;;;;;27.35;18.63;;;;;;;;;;5104105;28;20544;-80
2021/01/31 13:45:00;;;;;;;25.25;18.30;;;;;;;;;;5099205;28;20714;-81
2021/01/31 13:47:26;;;;;;;26.15;19.40;;;;;;;;;;5102008;28;20175;-80
2021/01/31 13:49:52;;;;;;;25.13;19.92;;;;;;;;;;5102767;28;20183;-80
2021/01/31 13:52:19;;;;;;;26.80;20.52;;;;;;;;;;5101214;28;20179;-80
2021/01/31 13:54:49;;;;;;;27.05;20.58;;;;;;;;;;5100545;28;20203;-80
2021/01/31 13:57:15;;;;;;;31.52;21.42;;;;;;;;;;5097056;28;20180;-80
2021/01/31 13:59:41;;;;;;;27.58;19.60;;;;;;;;;;5099635;28;20180;-80
2021/01/31 14:02:07;;;;;;;27.00;20.83;;;;;;;;;;5102006;28;20211;-80
2021/01/31 14:04:33;;;;;;;25.02;17.92;;;;;;;;;;5102087;28;20417;-81
2021/01/31 14:06:59;;;;;;;28.75;20.15;;;;;;;;;;5101742;28;20171;-80
2021/01/31 14:09:25;;;;;;;28.37;19.07;;;;;;;;;;5101568;28;20305;-80
2021/01/31 14:11:51;;;;;;;26.85;18.65;;;;;;;;;;5097188;28;20477;-80
2021/01/31 14:14:17;;;;;;;22.85;17.92;;;;;;;;;;5099997;28;20175;-81
2021/01/31 14:16:43;;;;;;;26.55;19.40;;;;;;;;;;5093506;28;20226;-80
2021/01/31 14:19:09;;;;;;;24.87;18.57;;;;;;;;;;5099890;28;20203;-80
2021/01/31 14:21:36;;;;;;;22.60;18.40;;;;;;;;;;5099806;28;20469;-81
2021/01/31 14:24:02;;;;;;;27.40;18.25;;;;;;;;;;5101493;28;20724;-80
2021/01/31 14:26:30;;;;;;;27.73;20.00;;;;;;;;;;5096602;28;20266;-80
2021/01/31 14:28:56;;;;;;;27.83;19.85;;;;;;;;;;5100723;28;20188;-80
2021/01/31 14:31:23;;;;;;;24.35;19.67;;;;;;;;;;5103120;28;20168;-80
2021/01/31 14:33:49;;;;;;;25.45;19.15;;;;;;;;;;5098599;28;20192;-80
2021/01/31 14:36:15;;;;;;;30.45;20.52;;;;;;;;;;5099161;28;20191;-80